Meander River, Canada
Current Conditions -  °F | °C
As of 9:00 AM on Wednesday 26 Nov 2014 (Local Time) from CYOJ Reporting Station
Light Snow Light Snow  
Wind Chill:   Ceiling: 1500
Heat Index:   Visibility: 10mi
Dew Point:   Wind: 2mph
Humidity: 92%   Direction: 10°N
Pressure: 30.18"   Gusts: NA
Location:  59.03°N, 117.68°W
Report Text: CYOJ 261600Z 01002KT 10SM -SN OVC015 M17/M18 A3018 RMK SC8 SLP258
Loading
Personal Weather Stations






























Interactive Weather Map New forecast layout! Learn more

10-Day Weather Forecast

Advertisements
Track Severe Weather on mobile